Terminal Aerodrome Forecast
Issued by NWS Northern Indiana

Home | Current Version | Previous Version | Graphics & Text | Print | Product List | Glossary On
Versions: 1 2 3 4 5 6 7 8 9 10 11 12 13 14 15 16 17 18 19 20 21 22 23
581
FTUS43 KIWX 300136 AAC
TAFFWA
TAF AMD
KFWA 300136Z 3002/3024 10007KT P6SM SCT040 BKN100
     FM300900 05004KT 2SM BR BKN015
     FM301100 06004KT 1SM BR OVC009
     FM301300 06004KT 5SM BR SCT010 BKN020
     FM301500 06006KT P6SM BKN040=

USA.gov is the U.S. government's official web portal to all federal, state and local government web resources and services.